sensor_id;sensor_type;location;lat;lon;timestamp;temperature;humidity
15705;DHT22;7952;48.396;12.806;2023-04-25T00:02:21;11.30;51.10
15705;DHT22;7952;48.396;12.806;2023-04-25T00:04:48;11.20;51.00
15705;DHT22;7952;48.396;12.806;2023-04-25T00:07:17;11.20;51.10
15705;DHT22;7952;48.396;12.806;2023-04-25T00:09:43;11.20;51.10
15705;DHT22;7952;48.396;12.806;2023-04-25T00:12:09;11.20;51.10
15705;DHT22;7952;48.396;12.806;2023-04-25T00:14:34;11.20;51.10
15705;DHT22;7952;48.396;12.806;2023-04-25T00:17:01;11.20;51.10
15705;DHT22;7952;48.396;12.806;2023-04-25T00:19:28;11.20;51.10
15705;DHT22;7952;48.396;12.806;2023-04-25T00:21:55;11.20;51.10
15705;DHT22;7952;48.396;12.806;2023-04-25T00:24:21;11.20;51.10
15705;DHT22;7952;48.396;12.806;2023-04-25T00:26:46;11.20;51.10
15705;DHT22;7952;48.396;12.806;2023-04-25T00:29:13;11.20;51.10
15705;DHT22;7952;48.396;12.806;2023-04-25T00:31:38;11.20;51.10
15705;DHT22;7952;48.396;12.806;2023-04-25T00:34:05;11.20;51.10
15705;DHT22;7952;48.396;12.806;2023-04-25T00:36:31;11.20;51.10
15705;DHT22;7952;48.396;12.806;2023-04-25T00:38:57;11.20;51.10
15705;DHT22;7952;48.396;12.806;2023-04-25T00:41:23;11.20;51.10
15705;DHT22;7952;48.396;12.806;2023-04-25T00:43:49;11.20;51.20
15705;DHT22;7952;48.396;12.806;2023-04-25T00:46:16;11.20;51.10
15705;DHT22;7952;48.396;12.806;2023-04-25T00:48:41;11.20;51.10
15705;DHT22;7952;48.396;12.806;2023-04-25T00:51:15;11.20;51.10
15705;DHT22;7952;48.396;12.806;2023-04-25T00:53:42;11.20;51.10
15705;DHT22;7952;48.396;12.806;2023-04-25T00:56:08;11.20;51.10
15705;DHT22;7952;48.396;12.806;2023-04-25T00:58:33;11.20;51.10
15705;DHT22;7952;48.396;12.806;2023-04-25T01:01:01;11.10;51.00
15705;DHT22;7952;48.396;12.806;2023-04-25T01:03:26;11.10;51.00
15705;DHT22;7952;48.396;12.806;2023-04-25T01:05:54;11.10;51.00
15705;DHT22;7952;48.396;12.806;2023-04-25T01:08:23;11.10;51.10
15705;DHT22;7952;48.396;12.806;2023-04-25T01:10:49;11.00;51.00
15705;DHT22;7952;48.396;12.806;2023-04-25T01:13:15;11.00;51.10
15705;DHT22;7952;48.396;12.806;2023-04-25T01:18:08;11.00;51.20
15705;DHT22;7952;48.396;12.806;2023-04-25T01:21:20;11.00;51.20
15705;DHT22;7952;48.396;12.806;2023-04-25T01:23:44;11.00;51.20
15705;DHT22;7952;48.396;12.806;2023-04-25T01:26:13;11.00;51.20
15705;DHT22;7952;48.396;12.806;2023-04-25T01:28:46;11.00;51.20
15705;DHT22;7952;48.396;12.806;2023-04-25T01:31:13;11.00;51.20
15705;DHT22;7952;48.396;12.806;2023-04-25T01:33:39;11.00;51.20
15705;DHT22;7952;48.396;12.806;2023-04-25T01:36:06;11.00;51.20
15705;DHT22;7952;48.396;12.806;2023-04-25T01:38:32;11.00;51.20
15705;DHT22;7952;48.396;12.806;2023-04-25T01:43:29;11.00;51.20
15705;DHT22;7952;48.396;12.806;2023-04-25T01:45:55;11.00;51.30
15705;DHT22;7952;48.396;12.806;2023-04-25T01:48:29;11.00;51.30
15705;DHT22;7952;48.396;12.806;2023-04-25T01:50:55;11.00;51.30
15705;DHT22;7952;48.396;12.806;2023-04-25T01:53:24;11.00;51.30
15705;DHT22;7952;48.396;12.806;2023-04-25T01:55:50;11.00;51.30
15705;DHT22;7952;48.396;12.806;2023-04-25T01:58:16;11.00;51.30
15705;DHT22;7952;48.396;12.806;2023-04-25T02:01:09;11.00;51.30
15705;DHT22;7952;48.396;12.806;2023-04-25T02:03:36;11.00;51.40
15705;DHT22;7952;48.396;12.806;2023-04-25T02:06:02;11.00;51.30
15705;DHT22;7952;48.396;12.806;2023-04-25T02:08:28;10.90;51.30
15705;DHT22;7952;48.396;12.806;2023-04-25T02:10:53;10.90;51.30
15705;DHT22;7952;48.396;12.806;2023-04-25T02:13:28;10.90;51.30
15705;DHT22;7952;48.396;12.806;2023-04-25T02:15:54;10.90;51.30
15705;DHT22;7952;48.396;12.806;2023-04-25T02:18:19;10.90;51.30
15705;DHT22;7952;48.396;12.806;2023-04-25T02:20:46;10.80;51.40
15705;DHT22;7952;48.396;12.806;2023-04-25T02:23:12;10.80;51.40
15705;DHT22;7952;48.396;12.806;2023-04-25T02:25:38;10.80;51.40
15705;DHT22;7952;48.396;12.806;2023-04-25T02:28:03;10.70;51.40
15705;DHT22;7952;48.396;12.806;2023-04-25T02:30:29;10.70;51.40
15705;DHT22;7952;48.396;12.806;2023-04-25T02:32:54;10.60;51.40
15705;DHT22;7952;48.396;12.806;2023-04-25T02:35:20;10.60;51.40
15705;DHT22;7952;48.396;12.806;2023-04-25T02:37:46;10.50;51.40
15705;DHT22;7952;48.396;12.806;2023-04-25T02:40:11;10.50;51.50
15705;DHT22;7952;48.396;12.806;2023-04-25T02:42:37;10.40;51.40
15705;DHT22;7952;48.396;12.806;2023-04-25T02:45:03;10.40;51.50
15705;DHT22;7952;48.396;12.806;2023-04-25T02:47:29;10.40;51.60
15705;DHT22;7952;48.396;12.806;2023-04-25T02:49:54;10.30;51.60
15705;DHT22;7952;48.396;12.806;2023-04-25T02:52:20;10.30;51.70
15705;DHT22;7952;48.396;12.806;2023-04-25T02:54:46;10.30;51.70
15705;DHT22;7952;48.396;12.806;2023-04-25T02:57:12;10.20;51.70
15705;DHT22;7952;48.396;12.806;2023-04-25T02:59:37;10.20;51.70
15705;DHT22;7952;48.396;12.806;2023-04-25T03:02:03;10.20;51.70
15705;DHT22;7952;48.396;12.806;2023-04-25T03:04:28;10.20;51.80
15705;DHT22;7952;48.396;12.806;2023-04-25T03:06:54;10.20;52.30
15705;DHT22;7952;48.396;12.806;2023-04-25T03:09:20;10.20;51.70
15705;DHT22;7952;48.396;12.806;2023-04-25T03:11:46;10.20;51.70
15705;DHT22;7952;48.396;12.806;2023-04-25T03:14:12;10.20;51.70
15705;DHT22;7952;48.396;12.806;2023-04-25T03:16:38;10.20;51.80
15705;DHT22;7952;48.396;12.806;2023-04-25T03:19:04;10.20;51.80
15705;DHT22;7952;48.396;12.806;2023-04-25T03:21:31;10.10;51.70
15705;DHT22;7952;48.396;12.806;2023-04-25T03:24:01;10.10;51.60
15705;DHT22;7952;48.396;12.806;2023-04-25T03:26:27;10.10;51.70
15705;DHT22;7952;48.396;12.806;2023-04-25T03:28:53;10.10;51.80
15705;DHT22;7952;48.396;12.806;2023-04-25T03:31:19;10.10;51.80
15705;DHT22;7952;48.396;12.806;2023-04-25T03:33:45;10.10;51.80
15705;DHT22;7952;48.396;12.806;2023-04-25T03:36:10;10.10;51.80
15705;DHT22;7952;48.396;12.806;2023-04-25T03:38:36;10.00;51.70
15705;DHT22;7952;48.396;12.806;2023-04-25T03:41:02;10.00;51.70
15705;DHT22;7952;48.396;12.806;2023-04-25T03:43:27;10.10;51.90
15705;DHT22;7952;48.396;12.806;2023-04-25T03:45:53;10.00;51.80
15705;DHT22;7952;48.396;12.806;2023-04-25T03:48:18;10.00;51.80
15705;DHT22;7952;48.396;12.806;2023-04-25T03:50:47;10.10;51.90
15705;DHT22;7952;48.396;12.806;2023-04-25T03:53:12;10.00;51.70
15705;DHT22;7952;48.396;12.806;2023-04-25T03:55:37;10.00;51.80
15705;DHT22;7952;48.396;12.806;2023-04-25T03:58:03;10.00;51.80
15705;DHT22;7952;48.396;12.806;2023-04-25T04:00:29;10.00;51.80
15705;DHT22;7952;48.396;12.806;2023-04-25T04:02:54;10.00;51.90
15705;DHT22;7952;48.396;12.806;2023-04-25T04:05:20;10.00;51.90
15705;DHT22;7952;48.396;12.806;2023-04-25T04:07:45;10.00;51.90
15705;DHT22;7952;48.396;12.806;2023-04-25T04:10:11;10.10;51.90
15705;DHT22;7952;48.396;12.806;2023-04-25T04:12:37;10.10;51.90
15705;DHT22;7952;48.396;12.806;2023-04-25T04:15:04;10.10;51.90
15705;DHT22;7952;48.396;12.806;2023-04-25T04:17:31;10.10;51.80
15705;DHT22;7952;48.396;12.806;2023-04-25T04:19:56;10.10;51.80
15705;DHT22;7952;48.396;12.806;2023-04-25T04:22:23;10.10;51.70
15705;DHT22;7952;48.396;12.806;2023-04-25T04:24:49;10.20;51.80
15705;DHT22;7952;48.396;12.806;2023-04-25T04:27:17;10.20;51.80
15705;DHT22;7952;48.396;12.806;2023-04-25T04:29:43;10.20;51.80
15705;DHT22;7952;48.396;12.806;2023-04-25T04:32:09;10.20;51.80
15705;DHT22;7952;48.396;12.806;2023-04-25T04:34:34;10.20;52.40
15705;DHT22;7952;48.396;12.806;2023-04-25T04:37:00;10.20;51.80
15705;DHT22;7952;48.396;12.806;2023-04-25T04:39:26;10.20;51.80
15705;DHT22;7952;48.396;12.806;2023-04-25T04:41:51;10.30;52.00
15705;DHT22;7952;48.396;12.806;2023-04-25T04:44:17;10.60;52.60
15705;DHT22;7952;48.396;12.806;2023-04-25T04:46:43;10.90;52.90
15705;DHT22;7952;48.396;12.806;2023-04-25T04:49:16;11.20;52.60
15705;DHT22;7952;48.396;12.806;2023-04-25T05:04:58;12.10;51.60
15705;DHT22;7952;48.396;12.806;2023-04-25T05:07:27;12.20;51.70
15705;DHT22;7952;48.396;12.806;2023-04-25T05:09:52;12.30;52.00
15705;DHT22;7952;48.396;12.806;2023-04-25T05:12:18;12.50;51.80
15705;DHT22;7952;48.396;12.806;2023-04-25T05:14:44;12.60;51.70
15705;DHT22;7952;48.396;12.806;2023-04-25T05:17:10;12.60;51.40
15705;DHT22;7952;48.396;12.806;2023-04-25T05:19:36;12.60;51.30
15705;DHT22;7952;48.396;12.806;2023-04-25T05:22:02;12.60;51.20
15705;DHT22;7952;48.396;12.806;2023-04-25T05:24:28;12.60;51.20
15705;DHT22;7952;48.396;12.806;2023-04-25T05:26:54;12.60;51.20
15705;DHT22;7952;48.396;12.806;2023-04-25T05:29:19;12.50;51.10
15705;DHT22;7952;48.396;12.806;2023-04-25T05:31:45;12.50;51.30
15705;DHT22;7952;48.396;12.806;2023-04-25T05:34:11;12.40;51.20
15705;DHT22;7952;48.396;12.806;2023-04-25T05:36:36;12.40;51.30
15705;DHT22;7952;48.396;12.806;2023-04-25T05:39:02;12.40;51.40
15705;DHT22;7952;48.396;12.806;2023-04-25T05:41:29;12.30;51.40
15705;DHT22;7952;48.396;12.806;2023-04-25T05:43:55;12.30;51.40
15705;DHT22;7952;48.396;12.806;2023-04-25T05:46:21;12.30;51.50
15705;DHT22;7952;48.396;12.806;2023-04-25T05:48:46;12.20;51.40
15705;DHT22;7952;48.396;12.806;2023-04-25T05:51:12;12.20;51.50
15705;DHT22;7952;48.396;12.806;2023-04-25T05:53:38;12.20;51.50
15705;DHT22;7952;48.396;12.806;2023-04-25T05:56:04;12.20;51.60
15705;DHT22;7952;48.396;12.806;2023-04-25T05:59:12;12.20;51.60
15705;DHT22;7952;48.396;12.806;2023-04-25T06:01:22;12.20;51.60
15705;DHT22;7952;48.396;12.806;2023-04-25T06:03:48;12.20;51.70
15705;DHT22;7952;48.396;12.806;2023-04-25T06:06:14;12.20;51.70
15705;DHT22;7952;48.396;12.806;2023-04-25T06:08:40;12.20;51.70
15705;DHT22;7952;48.396;12.806;2023-04-25T06:11:06;12.20;51.70
15705;DHT22;7952;48.396;12.806;2023-04-25T06:13:32;12.20;51.70
15705;DHT22;7952;48.396;12.806;2023-04-25T06:16:01;12.30;51.80
15705;DHT22;7952;48.396;12.806;2023-04-25T06:18:27;12.30;51.90
15705;DHT22;7952;48.396;12.806;2023-04-25T06:20:52;12.40;51.90
15705;DHT22;7952;48.396;12.806;2023-04-25T06:23:18;12.50;52.00
15705;DHT22;7952;48.396;12.806;2023-04-25T06:25:44;12.60;51.90
15705;DHT22;7952;48.396;12.806;2023-04-25T06:28:09;12.70;51.90
15705;DHT22;7952;48.396;12.806;2023-04-25T06:39:24;12.90;51.50
15705;DHT22;7952;48.396;12.806;2023-04-25T06:41:59;12.90;51.50
15705;DHT22;7952;48.396;12.806;2023-04-25T06:44:25;12.90;51.50
15705;DHT22;7952;48.396;12.806;2023-04-25T06:46:55;12.90;51.60
15705;DHT22;7952;48.396;12.806;2023-04-25T06:49:21;12.90;51.60
15705;DHT22;7952;48.396;12.806;2023-04-25T06:55:22;12.90;51.60
15705;DHT22;7952;48.396;12.806;2023-04-25T06:57:48;12.90;51.60
15705;DHT22;7952;48.396;12.806;2023-04-25T07:03:40;13.00;51.70
15705;DHT22;7952;48.396;12.806;2023-04-25T07:06:06;13.00;51.80
15705;DHT22;7952;48.396;12.806;2023-04-25T07:08:31;13.10;51.90
15705;DHT22;7952;48.396;12.806;2023-04-25T07:34:56;15.40;51.30
15705;DHT22;7952;48.396;12.806;2023-04-25T09:15:12;12.80;52.00
15705;DHT22;7952;48.396;12.806;2023-04-25T09:17:41;12.70;52.40
15705;DHT22;7952;48.396;12.806;2023-04-25T11:36:18;13.10;52.50
15705;DHT22;7952;48.396;12.806;2023-04-25T13:42:46;15.10;51.70
15705;DHT22;7952;48.396;12.806;2023-04-25T13:45:12;15.10;51.70
15705;DHT22;7952;48.396;12.806;2023-04-25T13:47:37;15.10;51.70
15705;DHT22;7952;48.396;12.806;2023-04-25T13:50:04;15.10;51.60
15705;DHT22;7952;48.396;12.806;2023-04-25T13:52:31;15.10;51.60
15705;DHT22;7952;48.396;12.806;2023-04-25T13:54:57;15.10;51.60
15705;DHT22;7952;48.396;12.806;2023-04-25T13:57:23;15.00;51.40
15705;DHT22;7952;48.396;12.806;2023-04-25T13:59:50;14.90;51.30
15705;DHT22;7952;48.396;12.806;2023-04-25T14:02:16;14.80;51.30
15705;DHT22;7952;48.396;12.806;2023-04-25T14:04:41;14.60;51.30
15705;DHT22;7952;48.396;12.806;2023-04-25T14:07:08;14.40;51.30
15705;DHT22;7952;48.396;12.806;2023-04-25T14:09:34;14.20;51.30
15705;DHT22;7952;48.396;12.806;2023-04-25T14:12:00;14.00;51.40
15705;DHT22;7952;48.396;12.806;2023-04-25T14:14:26;13.90;51.60
15705;DHT22;7952;48.396;12.806;2023-04-25T14:16:52;13.70;51.60
15705;DHT22;7952;48.396;12.806;2023-04-25T14:19:20;13.70;51.70
15705;DHT22;7952;48.396;12.806;2023-04-25T14:21:46;13.50;51.70
15705;DHT22;7952;48.396;12.806;2023-04-25T14:24:12;13.40;51.80
15705;DHT22;7952;48.396;12.806;2023-04-25T14:26:38;13.30;51.90
15705;DHT22;7952;48.396;12.806;2023-04-25T14:29:05;13.30;52.00
15705;DHT22;7952;48.396;12.806;2023-04-25T14:31:33;13.20;52.00
15705;DHT22;7952;48.396;12.806;2023-04-25T14:34:40;13.20;52.10
15705;DHT22;7952;48.396;12.806;2023-04-25T14:37:06;13.20;52.20
15705;DHT22;7952;48.396;12.806;2023-04-25T14:49:23;13.00;52.10
15705;DHT22;7952;48.396;12.806;2023-04-25T14:52:18;12.90;52.00
15705;DHT22;7952;48.396;12.806;2023-04-25T14:54:44;12.90;52.10
15705;DHT22;7952;48.396;12.806;2023-04-25T14:57:19;12.80;52.10
15705;DHT22;7952;48.396;12.806;2023-04-25T14:59:48;12.70;52.20
15705;DHT22;7952;48.396;12.806;2023-04-25T15:02:17;12.70;52.20
15705;DHT22;7952;48.396;12.806;2023-04-25T15:04:43;12.70;52.30
15705;DHT22;7952;48.396;12.806;2023-04-25T15:07:12;12.60;52.20
15705;DHT22;7952;48.396;12.806;2023-04-25T15:09:40;12.60;52.30
15705;DHT22;7952;48.396;12.806;2023-04-25T15:12:09;12.60;52.30
15705;DHT22;7952;48.396;12.806;2023-04-25T15:15:26;12.60;52.30
15705;DHT22;7952;48.396;12.806;2023-04-25T15:17:49;12.60;52.30
15705;DHT22;7952;48.396;12.806;2023-04-25T15:20:19;12.70;52.30
15705;DHT22;7952;48.396;12.806;2023-04-25T15:23:13;12.60;52.30
15705;DHT22;7952;48.396;12.806;2023-04-25T15:25:42;12.60;52.30
15705;DHT22;7952;48.396;12.806;2023-04-25T15:28:08;12.50;52.20
15705;DHT22;7952;48.396;12.806;2023-04-25T15:30:34;12.50;52.30
15705;DHT22;7952;48.396;12.806;2023-04-25T15:33:06;12.50;52.90
15705;DHT22;7952;48.396;12.806;2023-04-25T15:35:32;12.50;52.50
15705;DHT22;7952;48.396;12.806;2023-04-25T15:37:57;12.50;52.50
15705;DHT22;7952;48.396;12.806;2023-04-25T15:40:23;12.50;52.50
15705;DHT22;7952;48.396;12.806;2023-04-25T15:42:55;12.50;52.50
15705;DHT22;7952;48.396;12.806;2023-04-25T15:45:30;12.50;52.50
15705;DHT22;7952;48.396;12.806;2023-04-25T15:48:01;12.60;52.60
15705;DHT22;7952;48.396;12.806;2023-04-25T15:50:27;12.60;52.50
15705;DHT22;7952;48.396;12.806;2023-04-25T15:53:05;12.70;52.50
15705;DHT22;7952;48.396;12.806;2023-04-25T15:55:33;12.70;52.50
15705;DHT22;7952;48.396;12.806;2023-04-25T15:57:59;12.70;52.40
15705;DHT22;7952;48.396;12.806;2023-04-25T16:00:28;12.70;52.30
15705;DHT22;7952;48.396;12.806;2023-04-25T16:03:03;12.70;52.30
15705;DHT22;7952;48.396;12.806;2023-04-25T16:05:29;12.70;52.30
15705;DHT22;7952;48.396;12.806;2023-04-25T16:07:56;12.70;52.30
15705;DHT22;7952;48.396;12.806;2023-04-25T16:10:30;12.60;52.30
15705;DHT22;7952;48.396;12.806;2023-04-25T16:13:00;12.60;52.30
15705;DHT22;7952;48.396;12.806;2023-04-25T16:15:26;12.60;52.40
15705;DHT22;7952;48.396;12.806;2023-04-25T16:17:51;12.50;52.40
15705;DHT22;7952;48.396;12.806;2023-04-25T16:20:17;12.40;52.30
15705;DHT22;7952;48.396;12.806;2023-04-25T16:22:43;12.40;52.40
15705;DHT22;7952;48.396;12.806;2023-04-25T16:25:10;12.30;52.40
15705;DHT22;7952;48.396;12.806;2023-04-25T16:27:38;12.30;52.50
15705;DHT22;7952;48.396;12.806;2023-04-25T16:30:11;12.20;52.50
15705;DHT22;7952;48.396;12.806;2023-04-25T16:32:37;12.20;52.60
15705;DHT22;7952;48.396;12.806;2023-04-25T16:35:04;12.20;53.20
15705;DHT22;7952;48.396;12.806;2023-04-25T16:37:30;12.20;52.70
15705;DHT22;7952;48.396;12.806;2023-04-25T16:39:56;12.20;52.70
15705;DHT22;7952;48.396;12.806;2023-04-25T16:42:21;12.10;52.60
15705;DHT22;7952;48.396;12.806;2023-04-25T16:44:47;12.10;52.60
15705;DHT22;7952;48.396;12.806;2023-04-25T16:47:13;12.10;52.60
15705;DHT22;7952;48.396;12.806;2023-04-25T16:49:38;12.10;52.70
15705;DHT22;7952;48.396;12.806;2023-04-25T16:52:05;12.10;52.70
15705;DHT22;7952;48.396;12.806;2023-04-25T16:54:31;12.10;52.70
15705;DHT22;7952;48.396;12.806;2023-04-25T16:56:56;12.10;52.70
15705;DHT22;7952;48.396;12.806;2023-04-25T16:59:22;12.10;52.70
15705;DHT22;7952;48.396;12.806;2023-04-25T17:01:48;12.10;52.80
15705;DHT22;7952;48.396;12.806;2023-04-25T17:04:14;12.10;52.80
15705;DHT22;7952;48.396;12.806;2023-04-25T17:06:42;12.00;52.70
15705;DHT22;7952;48.396;12.806;2023-04-25T17:09:09;12.00;52.80
15705;DHT22;7952;48.396;12.806;2023-04-25T17:11:35;12.00;52.80
15705;DHT22;7952;48.396;12.806;2023-04-25T17:14:01;12.00;52.90
15705;DHT22;7952;48.396;12.806;2023-04-25T17:16:37;11.90;53.40
15705;DHT22;7952;48.396;12.806;2023-04-25T17:19:04;11.90;52.80
15705;DHT22;7952;48.396;12.806;2023-04-25T17:21:30;11.90;52.80
15705;DHT22;7952;48.396;12.806;2023-04-25T17:23:56;11.90;52.90
15705;DHT22;7952;48.396;12.806;2023-04-25T17:26:23;11.90;53.00
15705;DHT22;7952;48.396;12.806;2023-04-25T17:28:49;11.80;52.80
15705;DHT22;7952;48.396;12.806;2023-04-25T17:31:15;11.80;52.90
15705;DHT22;7952;48.396;12.806;2023-04-25T17:33:41;11.80;52.90
15705;DHT22;7952;48.396;12.806;2023-04-25T17:36:07;11.80;52.90
15705;DHT22;7952;48.396;12.806;2023-04-25T17:38:33;11.70;52.80
15705;DHT22;7952;48.396;12.806;2023-04-25T17:41:01;11.70;52.90
15705;DHT22;7952;48.396;12.806;2023-04-25T17:43:27;11.70;53.00
15705;DHT22;7952;48.396;12.806;2023-04-25T17:45:53;11.60;52.90
15705;DHT22;7952;48.396;12.806;2023-04-25T17:48:19;11.60;53.00
15705;DHT22;7952;48.396;12.806;2023-04-25T17:50:47;11.50;53.00
15705;DHT22;7952;48.396;12.806;2023-04-25T17:53:13;11.50;53.00
15705;DHT22;7952;48.396;12.806;2023-04-25T17:55:39;11.40;53.00
15705;DHT22;7952;48.396;12.806;2023-04-25T17:58:08;11.40;53.10
15705;DHT22;7952;48.396;12.806;2023-04-25T18:00:36;11.30;53.10
15705;DHT22;7952;48.396;12.806;2023-04-25T18:03:02;11.20;53.10
15705;DHT22;7952;48.396;12.806;2023-04-25T18:05:27;11.10;53.10
15705;DHT22;7952;48.396;12.806;2023-04-25T18:07:53;11.10;53.10
15705;DHT22;7952;48.396;12.806;2023-04-25T18:10:19;11.10;53.20
15705;DHT22;7952;48.396;12.806;2023-04-25T18:12:45;11.00;53.20
15705;DHT22;7952;48.396;12.806;2023-04-25T18:15:11;10.90;53.20
15705;DHT22;7952;48.396;12.806;2023-04-25T18:17:37;10.90;53.20
15705;DHT22;7952;48.396;12.806;2023-04-25T18:20:08;10.90;53.30
15705;DHT22;7952;48.396;12.806;2023-04-25T18:22:36;10.80;53.30
15705;DHT22;7952;48.396;12.806;2023-04-25T18:25:02;10.80;53.40
15705;DHT22;7952;48.396;12.806;2023-04-25T18:27:30;10.70;53.30
15705;DHT22;7952;48.396;12.806;2023-04-25T18:29:56;10.70;53.40
15705;DHT22;7952;48.396;12.806;2023-04-25T18:32:22;10.70;53.40
15705;DHT22;7952;48.396;12.806;2023-04-25T18:34:48;10.70;53.50
15705;DHT22;7952;48.396;12.806;2023-04-25T18:37:15;10.70;53.50
15705;DHT22;7952;48.396;12.806;2023-04-25T18:39:41;10.60;53.40
15705;DHT22;7952;48.396;12.806;2023-04-25T18:42:07;10.60;53.40
15705;DHT22;7952;48.396;12.806;2023-04-25T18:44:36;10.60;53.40
15705;DHT22;7952;48.396;12.806;2023-04-25T18:47:08;10.60;53.40
15705;DHT22;7952;48.396;12.806;2023-04-25T18:49:35;10.60;53.40
15705;DHT22;7952;48.396;12.806;2023-04-25T18:52:02;10.60;53.50
15705;DHT22;7952;48.396;12.806;2023-04-25T18:54:28;10.60;53.40
15705;DHT22;7952;48.396;12.806;2023-04-25T18:56:54;10.50;53.40
15705;DHT22;7952;48.396;12.806;2023-04-25T18:59:25;10.50;53.40
15705;DHT22;7952;48.396;12.806;2023-04-25T19:01:51;10.50;53.40
15705;DHT22;7952;48.396;12.806;2023-04-25T19:04:18;10.50;53.40
15705;DHT22;7952;48.396;12.806;2023-04-25T19:06:44;10.50;53.40
15705;DHT22;7952;48.396;12.806;2023-04-25T19:09:11;10.40;53.30
15705;DHT22;7952;48.396;12.806;2023-04-25T19:11:38;10.50;53.50
15705;DHT22;7952;48.396;12.806;2023-04-25T19:14:03;10.50;53.50
15705;DHT22;7952;48.396;12.806;2023-04-25T19:16:29;10.40;53.40
15705;DHT22;7952;48.396;12.806;2023-04-25T19:19:01;10.40;53.40
15705;DHT22;7952;48.396;12.806;2023-04-25T19:21:27;10.40;53.40
15705;DHT22;7952;48.396;12.806;2023-04-25T19:23:53;10.40;53.40
15705;DHT22;7952;48.396;12.806;2023-04-25T19:26:19;10.40;53.40
15705;DHT22;7952;48.396;12.806;2023-04-25T19:28:45;10.30;53.30
15705;DHT22;7952;48.396;12.806;2023-04-25T19:31:11;10.40;53.40
15705;DHT22;7952;48.396;12.806;2023-04-25T19:33:37;10.40;53.50
15705;DHT22;7952;48.396;12.806;2023-04-25T19:36:03;10.30;53.40
15705;DHT22;7952;48.396;12.806;2023-04-25T19:38:32;10.30;53.50
15705;DHT22;7952;48.396;12.806;2023-04-25T19:40:57;10.30;53.50
15705;DHT22;7952;48.396;12.806;2023-04-25T19:43:23;10.30;53.50
15705;DHT22;7952;48.396;12.806;2023-04-25T19:45:49;10.30;53.50
15705;DHT22;7952;48.396;12.806;2023-04-25T19:48:15;10.30;53.60
15705;DHT22;7952;48.396;12.806;2023-04-25T19:50:41;10.30;53.50
15705;DHT22;7952;48.396;12.806;2023-04-25T19:53:07;10.30;53.60
15705;DHT22;7952;48.396;12.806;2023-04-25T19:55:33;10.30;53.60
15705;DHT22;7952;48.396;12.806;2023-04-25T19:57:59;10.30;53.60
15705;DHT22;7952;48.396;12.806;2023-04-25T20:00:26;10.30;53.60
15705;DHT22;7952;48.396;12.806;2023-04-25T20:02:51;10.30;53.60
15705;DHT22;7952;48.396;12.806;2023-04-25T20:05:17;10.30;53.60
15705;DHT22;7952;48.396;12.806;2023-04-25T20:07:43;10.30;53.60
15705;DHT22;7952;48.396;12.806;2023-04-25T20:10:10;10.30;53.60
15705;DHT22;7952;48.396;12.806;2023-04-25T20:12:38;10.30;53.60
15705;DHT22;7952;48.396;12.806;2023-04-25T20:15:08;10.30;53.60
15705;DHT22;7952;48.396;12.806;2023-04-25T20:17:40;10.30;53.60
15705;DHT22;7952;48.396;12.806;2023-04-25T20:20:08;10.30;53.60
15705;DHT22;7952;48.396;12.806;2023-04-25T20:22:34;10.30;53.60
15705;DHT22;7952;48.396;12.806;2023-04-25T20:25:06;10.40;53.60
15705;DHT22;7952;48.396;12.806;2023-04-25T20:27:32;10.40;53.60
15705;DHT22;7952;48.396;12.806;2023-04-25T20:29:58;10.40;53.60
15705;DHT22;7952;48.396;12.806;2023-04-25T20:32:29;10.40;53.60
15705;DHT22;7952;48.396;12.806;2023-04-25T20:34:59;10.40;53.60
15705;DHT22;7952;48.396;12.806;2023-04-25T20:37:26;10.40;53.60
15705;DHT22;7952;48.396;12.806;2023-04-25T20:39:52;10.40;53.60
15705;DHT22;7952;48.396;12.806;2023-04-25T20:42:18;10.40;53.60
15705;DHT22;7952;48.396;12.806;2023-04-25T20:44:43;10.40;53.60
15705;DHT22;7952;48.396;12.806;2023-04-25T20:47:09;10.40;53.60
15705;DHT22;7952;48.396;12.806;2023-04-25T20:49:35;10.40;53.50
15705;DHT22;7952;48.396;12.806;2023-04-25T20:52:01;10.40;53.60
15705;DHT22;7952;48.396;12.806;2023-04-25T20:54:27;10.40;53.60
15705;DHT22;7952;48.396;12.806;2023-04-25T20:56:55;10.40;53.60
15705;DHT22;7952;48.396;12.806;2023-04-25T20:59:20;10.40;53.60
15705;DHT22;7952;48.396;12.806;2023-04-25T21:01:47;10.40;53.60
15705;DHT22;7952;48.396;12.806;2023-04-25T21:04:13;10.40;53.60
15705;DHT22;7952;48.396;12.806;2023-04-25T21:06:39;10.40;53.60
15705;DHT22;7952;48.396;12.806;2023-04-25T21:09:05;10.30;53.50
15705;DHT22;7952;48.396;12.806;2023-04-25T21:11:32;10.30;53.50
15705;DHT22;7952;48.396;12.806;2023-04-25T21:13:57;10.30;53.60
15705;DHT22;7952;48.396;12.806;2023-04-25T21:16:23;10.30;53.60
15705;DHT22;7952;48.396;12.806;2023-04-25T21:18:49;10.20;53.60
15705;DHT22;7952;48.396;12.806;2023-04-25T21:21:15;10.20;53.60
15705;DHT22;7952;48.396;12.806;2023-04-25T21:23:41;10.20;53.60
15705;DHT22;7952;48.396;12.806;2023-04-25T21:26:07;10.20;53.60
15705;DHT22;7952;48.396;12.806;2023-04-25T21:28:32;10.10;53.60
15705;DHT22;7952;48.396;12.806;2023-04-25T21:30:58;10.10;53.60
15705;DHT22;7952;48.396;12.806;2023-04-25T21:33:24;10.10;53.70
15705;DHT22;7952;48.396;12.806;2023-04-25T21:35:51;10.10;53.70
15705;DHT22;7952;48.396;12.806;2023-04-25T21:38:16;10.00;53.70
15705;DHT22;7952;48.396;12.806;2023-04-25T21:40:42;10.00;53.70
15705;DHT22;7952;48.396;12.806;2023-04-25T21:43:08;10.00;53.80
15705;DHT22;7952;48.396;12.806;2023-04-25T21:45:34;9.90;54.60
15705;DHT22;7952;48.396;12.806;2023-04-25T21:47:59;10.00;53.80
15705;DHT22;7952;48.396;12.806;2023-04-25T21:50:25;9.90;54.70
15705;DHT22;7952;48.396;12.806;2023-04-25T21:52:51;9.90;54.70
15705;DHT22;7952;48.396;12.806;2023-04-25T21:55:23;10.00;53.80
15705;DHT22;7952;48.396;12.806;2023-04-25T21:57:49;9.90;54.70
15705;DHT22;7952;48.396;12.806;2023-04-25T22:00:16;10.00;53.80
15705;DHT22;7952;48.396;12.806;2023-04-25T22:02:49;10.00;53.80
15705;DHT22;7952;48.396;12.806;2023-04-25T22:05:18;10.00;53.80
15705;DHT22;7952;48.396;12.806;2023-04-25T22:07:52;10.00;53.70
15705;DHT22;7952;48.396;12.806;2023-04-25T22:10:19;10.00;53.70
15705;DHT22;7952;48.396;12.806;2023-04-25T22:12:45;10.00;53.80
15705;DHT22;7952;48.396;12.806;2023-04-25T22:15:11;10.00;53.70
15705;DHT22;7952;48.396;12.806;2023-04-25T22:17:38;10.00;53.70
15705;DHT22;7952;48.396;12.806;2023-04-25T22:20:05;10.00;53.70
15705;DHT22;7952;48.396;12.806;2023-04-25T22:22:36;10.00;53.80
15705;DHT22;7952;48.396;12.806;2023-04-25T22:25:02;10.00;53.70
15705;DHT22;7952;48.396;12.806;2023-04-25T22:27:27;10.00;53.70
15705;DHT22;7952;48.396;12.806;2023-04-25T22:29:53;10.00;53.70
15705;DHT22;7952;48.396;12.806;2023-04-25T22:32:19;10.00;53.70
15705;DHT22;7952;48.396;12.806;2023-04-25T22:34:45;10.00;53.70
15705;DHT22;7952;48.396;12.806;2023-04-25T22:37:11;10.00;53.80